Time;durP1;ratioP1;P1;durP2;ratioP2;P2;SDS_P1;SDS_P2;PMS_P1;PMS_P2;Temp;Humidity;BMP_temperature;BMP_pressure;BME280_temperature;BME280_humidity;BME280_pressure;Samples;Min_cycle;Max_cycle;Signal;HPM_P1;HPM_P2
2023/12/29 00:01:55;;;;;;;;;1.67;0.00;;;;;10.03;84.59;101337.56;5056805;28;45422;-53
2023/12/29 00:04:20;;;;;;;;;4.00;0.67;;;;;10.05;84.68;101317.06;5058854;28;62116;-52
2023/12/29 00:06:46;;;;;;;;;1.00;0.00;;;;;10.08;85.20;101323.16;5060092;28;69051;-53
2023/12/29 00:09:12;;;;;;;;;2.67;0.00;;;;;10.14;84.48;101324.69;5059217;28;75569;-50
2023/12/29 00:11:38;;;;;;;;;3.00;1.00;;;;;10.19;84.85;101332.50;5060938;28;45406;-54
2023/12/29 00:14:03;;;;;;;;;0.00;0.00;;;;;10.24;84.28;101326.03;5058148;28;45426;-53
2023/12/29 00:16:28;;;;;;;;;0.00;0.00;;;;;10.31;84.26;101321.38;5058484;28;72728;-52
2023/12/29 00:18:53;;;;;;;;;1.00;1.00;;;;;10.33;84.13;101330.13;5059669;28;45884;-51
2023/12/29 00:21:19;;;;;;;;;4.00;1.00;;;;;10.39;84.08;101329.03;5060093;28;61152;-54
2023/12/29 00:23:44;;;;;;;;;1.00;0.00;;;;;10.43;84.09;101336.84;5060528;28;45604;-51
2023/12/29 00:26:10;;;;;;;;;1.33;0.33;;;;;10.49;83.79;101340.19;5053959;28;45355;-51
2023/12/29 00:28:40;;;;;;;;;0.33;0.33;;;;;10.50;83.58;101331.28;5046437;28;46296;-53
2023/12/29 00:31:05;;;;;;;;;1.00;1.00;;;;;10.53;83.42;101336.47;5047522;28;45460;-53
2023/12/29 00:33:31;;;;;;;;;3.00;1.00;;;;;10.55;83.45;101329.31;5056184;28;45493;-54
2023/12/29 00:35:57;;;;;;;;;1.00;1.00;;;;;10.56;83.23;101329.22;5053210;28;45461;-54
2023/12/29 00:38:22;;;;;;;;;1.00;1.00;;;;;10.57;83.13;101335.41;5060141;28;45613;-53
2023/12/29 00:40:48;;;;;;;;;2.00;1.00;;;;;10.59;83.31;101322.91;5060324;28;45993;-52
2023/12/29 00:43:13;;;;;;;;;2.33;1.00;;;;;10.61;83.12;101318.38;5060687;28;45364;-51
2023/12/29 00:45:39;;;;;;;;;0.00;0.00;;;;;10.61;83.15;101320.19;5060241;28;45236;-53
2023/12/29 00:48:04;;;;;;;;;0.67;0.67;;;;;10.61;83.05;101317.53;5058620;28;74036;-53
2023/12/29 00:50:30;;;;;;;;;1.00;0.00;;;;;10.59;83.07;101313.13;5049710;28;45371;-52
2023/12/29 00:52:55;;;;;;;;;1.33;1.33;;;;;10.61;82.66;101306.88;5041065;28;45166;-52
2023/12/29 00:55:20;;;;;;;;;1.00;1.00;;;;;10.61;82.66;101314.88;5055237;28;68543;-53
2023/12/29 00:57:46;;;;;;;;;1.33;0.00;;;;;10.57;82.42;101314.13;5046348;28;75708;-53
2023/12/29 01:00:12;;;;;;;;;2.67;1.00;;;;;10.53;82.58;101318.72;5073686;28;72177;-51
2023/12/29 01:02:41;;;;;;;;;2.00;2.00;;;;;10.50;83.00;101312.66;5075092;28;45343;-53
2023/12/29 01:05:06;;;;;;;;;0.00;0.00;;;;;10.47;83.05;101312.78;5080296;28;45472;-51
2023/12/29 01:07:32;;;;;;;;;1.00;1.00;;;;;10.45;82.72;101320.81;5079326;28;59823;-52
2023/12/29 01:09:57;;;;;;;;;0.67;0.67;;;;;10.43;83.22;101312.91;5080049;28;49086;-51
2023/12/29 01:12:22;;;;;;;;;1.33;0.33;;;;;10.41;83.07;101304.13;5076225;28;62042;-50
2023/12/29 01:14:48;;;;;;;;;1.67;1.00;;;;;10.39;82.91;101305.09;5078950;28;69212;-51
2023/12/29 01:17:13;;;;;;;;;2.33;1.00;;;;;10.37;83.10;101296.34;5079542;28;47709;-51
2023/12/29 01:19:38;;;;;;;;;3.00;1.00;;;;;10.35;83.15;101307.06;5080077;28;45466;-51
2023/12/29 01:22:04;;;;;;;;;0.67;0.67;;;;;10.33;83.31;101300.03;5078922;28;67052;-50
2023/12/29 01:24:29;;;;;;;;;0.00;0.00;;;;;10.30;83.41;101301.03;5078894;28;45290;-53
2023/12/29 01:26:56;;;;;;;;;0.00;0.00;;;;;10.26;83.56;101299.44;5079597;28;45361;-52
2023/12/29 01:29:21;;;;;;;;;4.00;1.33;;;;;10.26;83.09;101294.97;5079932;28;45406;-52
2023/12/29 01:31:47;;;;;;;;;0.00;0.00;;;;;10.26;83.47;101299.44;5079055;28;67143;-53
2023/12/29 01:34:12;;;;;;;;;0.67;0.00;;;;;10.26;83.60;101291.44;5059384;28;45596;-53
2023/12/29 01:36:38;;;;;;;;;3.33;1.00;;;;;10.28;83.17;101286.91;5051970;28;46049;-53
2023/12/29 01:39:03;;;;;;;;;1.00;0.00;;;;;10.30;83.50;101287.72;5066094;28;45743;-51
2023/12/29 01:41:29;;;;;;;;;2.00;0.00;;;;;10.34;83.63;101294.66;5079210;28;63041;-53
2023/12/29 01:43:57;;;;;;;;;0.33;0.00;;;;;10.39;83.78;101294.47;5079467;28;45503;-50
2023/12/29 01:46:27;;;;;;;;;1.00;1.00;;;;;10.46;83.54;101298.63;5079440;28;46030;-50
2023/12/29 01:48:53;;;;;;;;;2.00;0.00;;;;;10.52;83.52;101300.16;5074157;28;45261;-50
2023/12/29 01:51:20;;;;;;;;;0.00;0.00;;;;;10.58;83.54;101308.72;5062958;28;68958;-54
2023/12/29 01:53:46;;;;;;;;;4.67;0.00;;;;;10.64;83.01;101309.41;5061798;28;45423;-52
2023/12/29 01:56:12;;;;;;;;;1.00;0.00;;;;;10.66;83.03;101300.44;5044275;28;46151;-53
2023/12/29 01:58:37;;;;;;;;;2.00;0.67;;;;;10.70;83.07;101307.38;5060520;28;73302;-54
2023/12/29 02:01:03;;;;;;;;;0.67;0.67;;;;;10.73;82.78;101309.03;5073034;28;68247;-52
2023/12/29 02:03:29;;;;;;;;;0.67;0.67;;;;;10.76;82.60;101301.78;5078917;28;45606;-52
2023/12/29 02:05:57;;;;;;;;;3.00;1.67;;;;;10.78;82.52;101300.84;5077792;28;74126;-54
2023/12/29 02:08:22;;;;;;;;;0.00;0.00;;;;;10.79;82.30;101300.78;5078636;28;72312;-49
2023/12/29 02:10:48;;;;;;;;;1.33;1.00;;;;;10.80;82.35;101315.81;5078458;28;69336;-53
2023/12/29 02:13:14;;;;;;;;;1.00;0.00;;;;;10.82;82.43;101308.66;5079724;28;45799;-51
2023/12/29 02:15:40;;;;;;;;;3.00;1.00;;;;;10.86;82.23;101301.38;5078847;28;45397;-52
2023/12/29 02:18:06;;;;;;;;;1.00;0.00;;;;;10.87;82.15;101305.78;5043677;28;45332;-52
2023/12/29 02:20:31;;;;;;;;;0.00;0.00;;;;;10.89;82.30;101306.59;5079107;28;45468;-52
2023/12/29 02:22:57;;;;;;;;;0.00;0.00;;;;;10.90;82.01;101309.19;5078450;28;54880;-52
2023/12/29 02:25:22;;;;;;;;;0.00;0.00;;;;;10.89;82.01;101302.13;5078526;28;46250;-53
2023/12/29 02:28:25;;;;;;;;;0.00;0.00;;;;;10.90;82.16;101306.50;5078163;28;45294;-49
2023/12/29 02:31:00;;;;;;;;;0.00;0.00;;;;;10.93;82.17;101305.50;5076116;28;45461;-52
2023/12/29 02:33:26;;;;;;;;;0.33;0.00;;;;;10.95;81.99;101306.31;5060217;28;45328;-52
2023/12/29 02:35:52;;;;;;;;;3.00;0.00;;;;;10.98;81.92;101298.19;5076935;28;54180;-50
2023/12/29 02:38:18;;;;;;;;;2.00;0.67;;;;;11.00;81.88;101300.78;5060198;28;45413;-52
2023/12/29 02:40:43;;;;;;;;;0.00;0.00;;;;;10.99;81.89;101302.59;5068025;28;68354;-52
2023/12/29 02:43:09;;;;;;;;;2.33;1.00;;;;;11.01;81.65;101295.38;5050099;28;69249;-52
2023/12/29 02:45:34;;;;;;;;;0.00;0.00;;;;;11.00;81.52;101296.34;5078791;28;46060;-51
2023/12/29 02:48:00;;;;;;;;;0.00;0.00;;;;;10.98;81.63;101298.19;5077602;28;58302;-52
2023/12/29 02:50:25;;;;;;;;;0.00;0.00;;;;;10.98;81.80;101292.88;5070154;28;54736;-51
2023/12/29 02:52:50;;;;;;;;;0.00;0.00;;;;;10.99;81.57;101277.75;5058502;28;45648;-50
2023/12/29 02:55:16;;;;;;;;;0.00;0.00;;;;;10.98;81.93;101270.72;5077858;28;73943;-50
2023/12/29 02:57:41;;;;;;;;;0.00;0.00;;;;;10.99;81.72;101272.44;5067381;28;66635;-58
2023/12/29 03:00:07;;;;;;;;;3.00;0.00;;;;;11.00;81.80;101266.19;5074962;28;55220;-53
2023/12/29 03:02:32;;;;;;;;;0.33;0.33;;;;;11.00;81.74;101264.41;5041885;28;45426;-52
2023/12/29 03:04:58;;;;;;;;;1.00;0.00;;;;;11.04;81.83;101258.00;5078106;28;46233;-53
2023/12/29 03:07:24;;;;;;;;;1.00;0.00;;;;;11.06;81.63;101247.28;5078525;28;45432;-50
2023/12/29 03:09:49;;;;;;;;;0.00;0.00;;;;;11.07;81.68;101252.53;5078209;28;45307;-53
2023/12/29 03:12:14;;;;;;;;;2.00;0.33;;;;;11.06;81.64;101256.13;5055496;28;45497;-49
2023/12/29 03:14:39;;;;;;;;;0.00;0.00;;;;;11.06;81.80;101257.94;5077870;28;66584;-52
2023/12/29 03:17:05;;;;;;;;;1.00;1.00;;;;;11.07;81.98;101254.34;5076330;28;73324;-53
2023/12/29 03:19:30;;;;;;;;;1.00;1.00;;;;;11.07;81.98;101238.38;5077219;28;68329;-51
2023/12/29 03:21:55;;;;;;;;;0.67;0.67;;;;;11.09;81.93;101248.00;5066652;28;55278;-52
2023/12/29 03:24:21;;;;;;;;;0.00;0.00;;;;;11.09;81.98;101242.69;5064287;28;74949;-52
2023/12/29 03:26:46;;;;;;;;;0.00;0.00;;;;;11.09;82.08;101245.34;5078183;28;45418;-52
2023/12/29 03:29:11;;;;;;;;;1.67;1.00;;;;;11.05;81.91;101250.88;5077363;28;59919;-51
2023/12/29 03:31:37;;;;;;;;;0.00;0.00;;;;;11.06;82.00;101240.16;5064025;28;68060;-50
2023/12/29 03:34:02;;;;;;;;;1.00;1.00;;;;;11.07;81.88;101241.88;5062277;28;46272;-54
2023/12/29 03:36:27;;;;;;;;;0.00;0.00;;;;;11.07;82.04;101233.03;5058445;28;45273;-51
2023/12/29 03:38:53;;;;;;;;;0.00;0.00;;;;;11.05;82.30;101243.72;5058178;28;67691;-52
2023/12/29 03:41:18;;;;;;;;;1.00;1.00;;;;;11.06;81.99;101242.81;5061906;28;50255;-52
2023/12/29 03:43:44;;;;;;;;;0.00;0.00;;;;;11.09;82.30;101239.16;5080080;28;46862;-50
2023/12/29 03:46:17;;;;;;;;;0.00;0.00;;;;;11.12;82.22;101236.38;5081397;28;45398;-50
2023/12/29 03:48:42;;;;;;;;;1.33;0.67;;;;;11.14;82.09;101228.31;5081269;28;45443;-49
2023/12/29 03:51:08;;;;;;;;;0.00;0.00;;;;;11.16;82.20;101226.41;5077429;28;69339;-50
2023/12/29 03:53:33;;;;;;;;;0.33;0.00;;;;;11.18;81.95;101228.06;5067261;28;45868;-48
2023/12/29 03:55:58;;;;;;;;;0.00;0.00;;;;;11.20;82.07;101220.88;5061873;28;72028;-52
2023/12/29 03:58:24;;;;;;;;;0.00;0.00;;;;;11.21;81.74;101222.63;5046469;28;57948;-53
2023/12/29 04:00:49;;;;;;;;;0.00;0.00;;;;;11.20;81.76;101226.22;5072705;28;68280;-50
2023/12/29 04:03:14;;;;;;;;;1.00;0.00;;;;;11.19;81.56;101221.81;5080021;28;75639;-49
2023/12/29 04:05:40;;;;;;;;;2.33;0.00;;;;;11.17;81.86;101220.16;5062310;28;72751;-54
2023/12/29 04:08:05;;;;;;;;;2.00;0.00;;;;;11.16;81.92;101216.66;5080041;28;57857;-53
2023/12/29 04:10:31;;;;;;;;;1.00;0.00;;;;;11.17;81.57;101220.16;5070166;28;45281;-51
2023/12/29 04:12:56;;;;;;;;;2.00;1.00;;;;;11.16;81.41;101216.66;5066945;28;46094;-50
2023/12/29 04:15:21;;;;;;;;;0.00;0.00;;;;;11.14;81.34;101222.97;5080289;28;73235;-50
2023/12/29 04:17:46;;;;;;;;;0.00;0.00;;;;;11.15;81.21;101214.06;5080359;28;65970;-51
2023/12/29 04:20:12;;;;;;;;;2.00;0.00;;;;;11.14;81.31;101207.00;5079869;28;64567;-50
2023/12/29 04:22:37;;;;;;;;;1.67;0.33;;;;;11.13;81.22;101216.75;5080023;28;74861;-53
2023/12/29 04:25:03;;;;;;;;;0.00;0.00;;;;;11.13;81.28;101219.44;5079732;28;71575;-51
2023/12/29 04:27:28;;;;;;;;;0.00;0.00;;;;;11.11;81.19;101210.66;5077026;28;45351;-53
2023/12/29 04:29:53;;;;;;;;;0.33;0.00;;;;;11.11;80.96;101209.78;5066998;28;67739;-53
2023/12/29 04:32:19;;;;;;;;;2.00;0.67;;;;;11.12;80.92;101206.19;5078249;28;46892;-50
2023/12/29 04:34:44;;;;;;;;;0.00;0.00;;;;;11.11;80.96;101207.13;5080818;28;45442;-53
2023/12/29 04:37:09;;;;;;;;;1.00;0.33;;;;;11.12;81.12;101211.53;5079465;28;67068;-52
2023/12/29 04:39:35;;;;;;;;;0.00;0.00;;;;;11.12;80.91;101212.41;5081055;28;45456;-51
2023/12/29 04:42:00;;;;;;;;;2.00;0.00;;;;;11.13;80.76;101206.13;5079995;28;46020;-52
2023/12/29 04:44:25;;;;;;;;;0.00;0.00;;;;;11.14;80.82;101204.34;5080080;28;71916;-53
2023/12/29 04:46:51;;;;;;;;;0.67;0.00;;;;;11.14;80.82;101202.53;5074378;28;67275;-51
2023/12/29 04:49:16;;;;;;;;;0.33;0.33;;;;;11.12;80.62;101214.19;5071343;28;45650;-53
2023/12/29 04:51:41;;;;;;;;;0.67;0.00;;;;;11.09;80.87;101205.41;5059688;28;55069;-52
2023/12/29 04:54:07;;;;;;;;;1.00;1.00;;;;;11.09;80.94;101208.09;5060024;28;45391;-50
2023/12/29 04:56:32;;;;;;;;;0.00;0.00;;;;;11.10;80.91;101211.59;5064231;28;53192;-53
2023/12/29 04:58:59;;;;;;;;;1.00;0.00;;;;;11.13;80.93;101202.59;5059518;28;47746;-51
2023/12/29 05:01:24;;;;;;;;;1.00;0.00;;;;;11.14;80.79;101207.00;5078540;28;46648;-52
2023/12/29 05:03:49;;;;;;;;;0.00;0.00;;;;;11.14;80.77;101196.34;5079880;28;45706;-52
2023/12/29 05:06:15;;;;;;;;;3.00;0.00;;;;;11.14;80.82;101199.88;5079903;28;48594;-52
2023/12/29 05:08:40;;;;;;;;;0.00;0.00;;;;;11.13;80.73;101202.59;5057884;28;68480;-52
2023/12/29 05:11:06;;;;;;;;;0.00;0.00;;;;;11.14;80.64;101205.19;5064630;28;45647;-50
2023/12/29 05:13:31;;;;;;;;;0.00;0.00;;;;;11.14;80.60;101207.84;5080567;28;45429;-50
2023/12/29 05:15:56;;;;;;;;;0.00;0.00;;;;;11.17;80.74;101201.53;5074069;28;45347;-52
2023/12/29 05:18:22;;;;;;;;;0.00;0.00;;;;;11.17;80.55;101199.75;5040958;28;65716;-52
2023/12/29 05:20:47;;;;;;;;;2.67;1.00;;;;;11.17;80.66;101204.19;5059721;28;46963;-52
2023/12/29 05:23:12;;;;;;;;;0.00;0.00;;;;;11.17;80.60;101209.50;5058740;28;71213;-52
2023/12/29 05:25:38;;;;;;;;;0.00;0.00;;;;;11.17;80.57;101213.06;5077067;28;58320;-52
2023/12/29 05:28:03;;;;;;;;;0.00;0.00;;;;;11.17;80.66;101213.06;5074923;28;70460;-52
2023/12/29 05:30:31;;;;;;;;;2.00;1.00;;;;;11.18;80.72;101219.22;5075463;28;46016;-51
2023/12/29 05:32:56;;;;;;;;;0.00;0.00;;;;;11.18;80.77;101220.09;5079473;28;45254;-52
2023/12/29 05:35:22;;;;;;;;;0.00;0.00;;;;;11.19;80.85;101219.16;5078551;28;66004;-51
2023/12/29 05:37:47;;;;;;;;;1.00;0.00;;;;;11.17;81.03;101217.50;5079219;28;69349;-53
2023/12/29 05:40:12;;;;;;;;;0.00;0.00;;;;;11.17;80.73;101225.47;5060803;28;46525;-53
2023/12/29 05:42:38;;;;;;;;;0.33;0.33;;;;;11.16;80.64;101226.41;5069409;28;45276;-52
2023/12/29 05:45:03;;;;;;;;;0.67;0.33;;;;;11.15;80.65;101222.91;5059948;28;68822;-53
2023/12/29 05:47:29;;;;;;;;;0.00;0.00;;;;;11.15;80.55;101224.72;5069905;28;45245;-53
2023/12/29 05:49:54;;;;;;;;;3.00;0.00;;;;;11.16;80.68;101207.78;5072207;28;46052;-50
2023/12/29 05:52:21;;;;;;;;;1.00;0.00;;;;;11.11;80.63;101216.00;5074017;28;71208;-52
2023/12/29 05:54:46;;;;;;;;;2.00;0.00;;;;;11.11;80.60;101213.31;5079273;28;45398;-52
2023/12/29 05:57:12;;;;;;;;;0.00;0.00;;;;;11.11;80.56;101210.66;5073143;28;45372;-53
2023/12/29 05:59:37;;;;;;;;;0.00;0.00;;;;;11.12;80.53;101216.84;5062532;28;46809;-53
2023/12/29 06:02:03;;;;;;;;;0.00;0.00;;;;;11.13;80.64;101205.25;5072749;28;45520;-53
2023/12/29 06:04:28;;;;;;;;;5.33;0.00;;;;;11.14;80.58;101199.00;5078674;28;66779;-53
2023/12/29 06:06:53;;;;;;;;;0.00;0.00;;;;;11.14;80.24;101196.34;5078216;28;69535;-49
2023/12/29 06:09:19;;;;;;;;;1.33;0.00;;;;;11.13;80.03;101197.28;5079479;28;46000;-51
2023/12/29 06:11:44;;;;;;;;;0.00;0.00;;;;;11.13;79.93;101197.28;5078929;28;73204;-49
2023/12/29 06:14:10;;;;;;;;;0.00;0.00;;;;;11.14;79.86;101210.50;5043159;28;68845;-49
2023/12/29 06:16:35;;;;;;;;;2.00;1.00;;;;;11.13;79.27;101214.09;5072062;28;45535;-53
2023/12/29 06:19:00;;;;;;;;;1.00;0.00;;;;;11.14;79.58;101217.66;5063793;28;60383;-50
2023/12/29 06:21:26;;;;;;;;;0.00;0.00;;;;;11.14;79.53;101215.84;5069125;28;63927;-50
2023/12/29 06:23:51;;;;;;;;;0.00;0.00;;;;;11.18;79.58;101225.41;5077423;28;54425;-50
2023/12/29 06:26:20;;;;;;;;;0.00;0.00;;;;;11.20;79.40;101220.88;5078331;28;64912;-48
2023/12/29 06:28:46;;;;;;;;;0.00;0.00;;;;;11.22;79.43;101226.13;5058844;28;46054;-49
2023/12/29 06:31:11;;;;;;;;;0.00;0.00;;;;;11.24;79.16;101216.28;5066629;28;45343;-52
2023/12/29 06:33:40;;;;;;;;;0.00;0.00;;;;;11.23;78.95;101227.88;5064971;28;54154;-49
2023/12/29 06:36:06;;;;;;;;;0.67;0.00;;;;;11.25;78.91;101232.19;5078921;28;45363;-52
2023/12/29 06:38:33;;;;;;;;;0.00;0.00;;;;;11.24;78.79;101224.28;5077419;28;46271;-52
2023/12/29 06:40:59;;;;;;;;;0.00;0.00;;;;;11.25;78.84;101215.34;5078585;28;45797;-51
2023/12/29 06:43:25;;;;;;;;;2.00;0.00;;;;;11.24;78.73;101216.28;5078782;28;45457;-51
2023/12/29 06:45:50;;;;;;;;;0.00;0.00;;;;;11.25;78.57;101212.66;5067563;28;68548;-49
2023/12/29 06:48:15;;;;;;;;;1.00;0.00;;;;;11.25;78.69;101213.56;5063411;28;46177;-52
2023/12/29 06:50:41;;;;;;;;;0.00;0.00;;;;;11.24;78.82;101217.16;5074884;28;70538;-52
2023/12/29 06:53:06;;;;;;;;;0.00;0.00;;;;;11.26;78.78;101217.06;5077188;28;60961;-51
2023/12/29 06:55:31;;;;;;;;;0.00;0.00;;;;;11.25;78.95;101216.22;5078992;28;45314;-52
2023/12/29 06:57:57;;;;;;;;;2.00;0.00;;;;;11.25;78.94;101213.56;5065983;28;75478;-53
2023/12/29 07:00:22;;;;;;;;;2.33;0.00;;;;;11.22;78.93;101219.03;5068834;28;45370;-52
2023/12/29 07:02:47;;;;;;;;;2.00;0.00;;;;;11.22;79.00;101211.03;5075638;28;45364;-52
2023/12/29 07:05:13;;;;;;;;;0.00;0.00;;;;;11.21;79.13;101204.00;5077263;28;70308;-51
2023/12/29 07:07:38;;;;;;;;;0.00;0.00;;;;;11.21;79.34;101208.44;5076733;28;74252;-53
2023/12/29 07:10:06;;;;;;;;;4.00;1.00;;;;;11.18;79.11;101203.25;5078268;28;45527;-52
2023/12/29 07:12:31;;;;;;;;;0.00;0.00;;;;;11.15;79.37;101203.41;5075941;28;45650;-52
2023/12/29 07:14:56;;;;;;;;;0.00;0.00;;;;;11.14;79.47;101199.88;5077583;28;45386;-51
2023/12/29 07:17:22;;;;;;;;;0.00;0.00;;;;;11.13;79.47;101202.59;5070955;28;45428;-52
2023/12/29 07:19:47;;;;;;;;;0.00;0.00;;;;;11.07;79.65;101193.97;5078128;28;45389;-52
2023/12/29 07:22:12;;;;;;;;;0.00;0.00;;;;;11.00;79.61;101200.53;5076739;28;69604;-53
2023/12/29 07:24:38;;;;;;;;;0.67;0.00;;;;;10.96;80.12;101195.38;5067528;28;45633;-52
2023/12/29 07:27:04;;;;;;;;;0.00;0.00;;;;;10.88;80.46;101199.25;5065794;28;46004;-51
2023/12/29 07:29:29;;;;;;;;;1.00;1.00;;;;;10.84;80.37;101194.16;5076418;28;72936;-54
2023/12/29 07:31:55;;;;;;;;;0.00;0.00;;;;;10.78;80.61;101205.06;5077343;28;45423;-52
2023/12/29 07:34:21;;;;;;;;;1.00;0.00;;;;;10.73;81.25;101200.81;5077114;28;69325;-51
2023/12/29 07:36:46;;;;;;;;;1.00;0.00;;;;;10.70;81.48;101185.00;5077727;28;45588;-48
2023/12/29 07:39:11;;;;;;;;;0.00;0.00;;;;;10.67;82.26;101197.56;5059911;28;45545;-50
2023/12/29 07:41:41;;;;;;;;;0.67;0.00;;;;;10.64;82.10;101193.25;5072798;28;45432;-51
2023/12/29 07:44:07;;;;;;;;;0.00;0.00;;;;;10.62;82.08;101199.56;5078137;28;45352;-51
2023/12/29 07:46:33;;;;;;;;;0.00;0.00;;;;;10.58;82.69;101199.66;5064370;28;45323;-50
2023/12/29 07:48:58;;;;;;;;;0.00;0.00;;;;;10.56;82.16;101211.34;5076742;28;72904;-50
2023/12/29 07:51:23;;;;;;;;;0.67;0.67;;;;;10.55;82.53;101204.28;5073816;28;69450;-50
2023/12/29 07:53:49;;;;;;;;;1.00;1.00;;;;;10.53;82.56;101212.34;5076873;28;65298;-51
2023/12/29 07:56:14;;;;;;;;;1.00;0.67;;;;;10.51;82.80;101211.53;5076721;28;73637;-52
2023/12/29 07:58:39;;;;;;;;;0.00;0.00;;;;;10.52;82.70;101197.31;5059466;28;45367;-49
2023/12/29 08:01:05;;;;;;;;;2.00;0.00;;;;;10.51;83.15;101200.88;5056583;28;51674;-50
2023/12/29 08:03:30;;;;;;;;;0.00;0.00;;;;;10.52;82.99;101199.97;5038728;28;70412;-52
2023/12/29 08:05:55;;;;;;;;;0.00;0.00;;;;;10.53;82.93;101199.03;5070931;28;75764;-51
2023/12/29 08:08:20;;;;;;;;;0.67;0.00;;;;;10.55;82.93;101202.47;5076600;28;73310;-50
2023/12/29 08:10:46;;;;;;;;;2.00;0.00;;;;;10.56;82.88;101188.25;5076748;28;65668;-52
2023/12/29 08:13:11;;;;;;;;;2.00;0.00;;;;;10.57;82.77;101192.66;5076250;28;69633;-50
2023/12/29 08:15:37;;;;;;;;;0.00;0.00;;;;;10.61;82.84;101188.03;5076376;28;68370;-52
2023/12/29 08:18:03;;;;;;;;;0.00;0.00;;;;;10.64;82.78;101197.69;5077001;28;45294;-50
2023/12/29 08:20:29;;;;;;;;;0.67;0.00;;;;;10.65;83.06;101192.31;5059209;28;45513;-51
2023/12/29 08:22:55;;;;;;;;;1.00;0.00;;;;;10.66;82.64;101206.47;5077298;28;45619;-51
2023/12/29 08:25:20;;;;;;;;;0.00;0.00;;;;;10.69;82.33;101203.66;5077100;28;45437;-52
2023/12/29 08:27:46;;;;;;;;;0.00;0.00;;;;;10.71;82.39;101205.31;5080120;28;70798;-49
2023/12/29 08:30:11;;;;;;;;;1.00;1.00;;;;;10.74;82.40;101194.56;5080581;28;46482;-54
2023/12/29 08:32:37;;;;;;;;;0.00;0.00;;;;;10.76;82.62;101187.34;5062324;28;45403;-48
2023/12/29 08:35:03;;;;;;;;;0.00;0.00;;;;;10.83;82.54;101195.06;5079120;28;75684;-50
2023/12/29 08:37:28;;;;;;;;;0.00;0.00;;;;;10.88;82.33;101209.88;5067437;28;45570;-49
2023/12/29 08:39:53;;;;;;;;;0.00;0.00;;;;;10.91;82.07;101195.59;5079741;28;68414;-50
2023/12/29 08:42:18;;;;;;;;;1.00;0.00;;;;;10.97;82.35;101205.09;5080834;28;45259;-50
2023/12/29 08:44:44;;;;;;;;;1.00;1.00;;;;;11.01;82.12;101201.38;5079326;28;76059;-48
2023/12/29 08:47:09;;;;;;;;;0.00;0.00;;;;;11.11;82.00;101209.78;5079288;28;72206;-53
2023/12/29 08:49:36;;;;;;;;;0.00;0.00;;;;;11.21;81.75;101224.41;5077784;28;45375;-51
2023/12/29 08:52:01;;;;;;;;;0.00;0.00;;;;;11.30;81.67;101217.81;5080206;28;45695;-51
2023/12/29 08:54:27;;;;;;;;;1.00;1.00;;;;;11.39;81.34;101220.91;5066968;28;54723;-51
2023/12/29 08:56:52;;;;;;;;;0.00;0.00;;;;;11.46;80.98;101221.47;5063055;28;45301;-52
2023/12/29 08:59:18;;;;;;;;;0.00;0.00;;;;;11.53;80.89;101219.41;5080422;28;46143;-49
2023/12/29 09:01:43;;;;;;;;;2.00;0.00;;;;;11.58;80.53;101228.03;5079150;28;64052;-50
2023/12/29 09:04:08;;;;;;;;;1.00;1.00;;;;;11.64;80.62;101226.88;5078812;28;75471;-49
2023/12/29 09:06:34;;;;;;;;;0.00;0.00;;;;;11.70;80.20;101237.25;5079709;28;57981;-51
2023/12/29 09:08:59;;;;;;;;;5.00;3.00;;;;;11.78;80.01;101228.88;5080502;28;45458;-51
2023/12/29 09:11:26;;;;;;;;;2.00;2.00;;;;;11.90;79.91;101226.47;5062178;28;45331;-51
2023/12/29 09:13:51;;;;;;;;;0.00;0.00;;;;;12.05;79.13;101237.38;5079731;28;46298;-51
2023/12/29 09:16:17;;;;;;;;;2.00;0.67;;;;;12.12;78.28;101249.44;5079749;28;57187;-52
2023/12/29 09:18:42;;;;;;;;;0.00;0.00;;;;;12.16;78.45;101236.81;5064990;28;63271;-53
2023/12/29 09:21:07;;;;;;;;;0.00;0.00;;;;;12.22;78.40;101250.72;5040118;28;71853;-53
2023/12/29 09:23:33;;;;;;;;;0.00;0.00;;;;;12.27;78.07;101239.81;5054261;28;75513;-52
2023/12/29 09:25:59;;;;;;;;;1.33;0.00;;;;;12.34;78.03;101240.38;5056119;28;45519;-52
2023/12/29 09:28:24;;;;;;;;;0.00;0.00;;;;;12.38;77.07;101248.16;5071854;28;45258;-53
2023/12/29 09:30:49;;;;;;;;;1.33;0.00;;;;;12.49;77.36;101276.97;5065217;28;70310;-52
2023/12/29 09:33:15;;;;;;;;;0.00;0.00;;;;;12.56;76.73;101253.50;5079551;28;46776;-51
2023/12/29 09:35:40;;;;;;;;;1.00;0.00;;;;;12.62;76.42;101260.31;5078396;28;45428;-52
2023/12/29 09:38:06;;;;;;;;;0.67;0.67;;;;;12.78;75.37;101265.75;5079282;28;45363;-48
2023/12/29 09:40:32;;;;;;;;;0.00;0.00;;;;;12.95;75.41;101252.34;5062134;28;45367;-50
2023/12/29 09:42:58;;;;;;;;;2.00;0.00;;;;;13.15;75.07;101250.44;5079546;28;46106;-51
2023/12/29 09:45:26;;;;;;;;;0.00;0.00;;;;;13.25;74.64;101251.66;5078582;28;70267;-53
2023/12/29 09:47:53;;;;;;;;;0.00;0.00;;;;;13.31;73.84;101245.13;5079684;28;45429;-51
2023/12/29 09:50:19;;;;;;;;;0.33;0.33;;;;;13.30;72.93;101251.44;5069985;28;45636;-52
2023/12/29 09:52:48;;;;;;;;;0.00;0.00;;;;;13.24;72.73;101242.81;5059531;28;45463;-53
2023/12/29 09:55:13;;;;;;;;;0.00;0.00;;;;;13.20;72.98;101248.38;5059265;28;45384;-50
2023/12/29 09:57:39;;;;;;;;;1.00;1.00;;;;;13.19;73.51;101246.66;5062524;28;51434;-53
2023/12/29 10:00:06;;;;;;;;;1.00;1.00;;;;;13.17;72.66;101240.53;5078886;28;45275;-52
2023/12/29 10:02:32;;;;;;;;;2.00;1.00;;;;;13.28;72.93;101239.94;5044619;28;46436;-51
2023/12/29 10:04:58;;;;;;;;;0.00;0.00;;;;;13.78;73.25;101239.00;5059617;28;70126;-51
2023/12/29 10:07:25;;;;;;;;;1.00;0.00;;;;;14.46;71.62;101244.94;5079656;28;45481;-52
2023/12/29 10:09:54;;;;;;;;;3.00;0.00;;;;;15.00;70.86;101230.97;5064937;28;45578;-50
2023/12/29 10:12:20;;;;;;;;;1.00;0.00;;;;;15.29;67.96;101231.84;5078898;28;45403;-52
2023/12/29 10:15:14;;;;;;;;;0.33;0.00;;;;;15.62;68.33;101249.41;5078853;28;45355;-53
2023/12/29 10:17:55;;;;;;;;;1.00;0.00;;;;;15.74;63.03;101244.22;5058518;28;45423;-49
2023/12/29 10:20:38;;;;;;;;;0.33;0.00;;;;;15.86;64.06;101241.63;5078905;28;45414;-51
2023/12/29 10:23:13;;;;;;;;;0.33;0.33;;;;;15.79;63.36;101234.06;5078729;28;45394;-52
2023/12/29 10:25:38;;;;;;;;;0.67;0.67;;;;;15.65;64.64;101246.53;5078961;28;45408;-50
2023/12/29 10:28:06;;;;;;;;;0.00;0.00;;;;;15.54;63.78;101254.41;5078952;28;45518;-52
2023/12/29 10:30:31;;;;;;;;;0.75;0.00;;;;;15.52;64.78;101259.00;5078704;28;45559;-52
2023/12/29 10:32:58;;;;;;;;;1.00;1.00;;;;;15.28;64.45;101250.69;5078533;28;46878;-49
2023/12/29 10:35:23;;;;;;;;;0.00;0.00;;;;;15.16;64.67;101260.34;5060452;28;45485;-50
2023/12/29 10:37:49;;;;;;;;;2.00;1.00;;;;;14.89;64.67;101234.31;5078757;28;45373;-52
2023/12/29 10:40:18;;;;;;;;;0.00;0.00;;;;;14.79;65.38;101254.59;5078675;28;49790;-49
2023/12/29 10:42:54;;;;;;;;;0.00;0.00;;;;;14.68;65.67;101248.06;5079152;28;45243;-50
2023/12/29 10:45:19;;;;;;;;;1.33;0.67;;;;;14.68;65.97;101245.38;5078452;28;45398;-51
2023/12/29 10:47:44;;;;;;;;;0.00;0.00;;;;;14.54;65.34;101239.97;5077277;28;66131;-50
2023/12/29 10:50:10;;;;;;;;;0.00;0.00;;;;;14.42;65.25;101243.34;5077945;28;45458;-49
2023/12/29 10:52:37;;;;;;;;;3.00;0.00;;;;;14.28;66.21;101228.13;5077707;28;75657;-52
2023/12/29 10:55:10;;;;;;;;;1.00;1.00;;;;;14.18;66.72;101234.03;5078080;28;45366;-52
2023/12/29 10:57:36;;;;;;;;;4.33;1.33;;;;;14.10;66.83;101232.75;5051161;28;45317;-52
2023/12/29 11:00:03;;;;;;;;;3.33;1.00;;;;;14.06;66.91;101234.72;5077502;28;46029;-51
2023/12/29 11:02:28;;;;;;;;;1.00;1.00;;;;;14.12;67.47;101230.81;5078672;28;46956;-50
2023/12/29 11:05:12;;;;;;;;;4.33;1.00;;;;;14.17;66.58;101224.28;5056202;28;45410;-49
2023/12/29 11:07:39;;;;;;;;;3.00;0.67;;;;;14.05;66.48;101209.81;5074352;28;45528;-49
2023/12/29 11:10:07;;;;;;;;;4.00;0.33;;;;;14.22;67.69;101207.94;5078448;28;45352;-52
2023/12/29 11:12:34;;;;;;;;;0.00;0.00;;;;;14.50;67.37;101222.38;5059269;28;45562;-50
2023/12/29 11:15:06;;;;;;;;;0.00;0.00;;;;;14.69;67.02;101215.00;5077758;28;45308;-48
2023/12/29 11:17:34;;;;;;;;;0.33;0.33;;;;;14.78;66.53;101221.56;5059690;28;45457;-50
2023/12/29 11:20:00;;;;;;;;;1.00;1.00;;;;;14.81;66.33;101215.16;5078057;28;45535;-49